sensor_id;sensor_type;location;lat;lon;timestamp;pressure;altitude;pressure_sealevel;temperature;humidity
62948;BME280;51940;52.126;-0.994;2023-03-18T00:00:39;99364.00;;;8.82;100.00
62948;BME280;51940;52.126;-0.994;2023-03-18T00:03:04;99362.26;;;8.81;100.00
62948;BME280;51940;52.126;-0.994;2023-03-18T00:05:30;99365.09;;;8.81;100.00
62948;BME280;51940;52.126;-0.994;2023-03-18T00:07:56;99362.41;;;8.81;100.00
62948;BME280;51940;52.126;-0.994;2023-03-18T00:10:21;99359.02;;;8.82;100.00
62948;BME280;51940;52.126;-0.994;2023-03-18T00:12:46;99362.17;;;8.83;100.00
62948;BME280;51940;52.126;-0.994;2023-03-18T00:15:12;99364.11;;;8.84;100.00
62948;BME280;51940;52.126;-0.994;2023-03-18T00:17:40;99358.74;;;8.85;100.00
62948;BME280;51940;52.126;-0.994;2023-03-18T00:20:06;99362.64;;;8.85;100.00
62948;BME280;51940;52.126;-0.994;2023-03-18T00:22:34;99365.30;;;8.85;100.00
62948;BME280;51940;52.126;-0.994;2023-03-18T00:25:00;99371.50;;;8.85;100.00
62948;BME280;51940;52.126;-0.994;2023-03-18T00:27:25;99368.13;;;8.86;100.00
62948;BME280;51940;52.126;-0.994;2023-03-18T00:29:51;99366.16;;;8.86;100.00
62948;BME280;51940;52.126;-0.994;2023-03-18T00:32:16;99366.85;;;8.86;100.00
62948;BME280;51940;52.126;-0.994;2023-03-18T00:34:42;99368.46;;;8.86;100.00
62948;BME280;51940;52.126;-0.994;2023-03-18T00:37:07;99371.32;;;8.86;100.00
62948;BME280;51940;52.126;-0.994;2023-03-18T00:39:34;99369.67;;;8.87;100.00
62948;BME280;51940;52.126;-0.994;2023-03-18T00:42:00;99370.03;;;8.87;100.00
62948;BME280;51940;52.126;-0.994;2023-03-18T00:44:34;99367.35;;;8.87;100.00
62948;BME280;51940;52.126;-0.994;2023-03-18T00:47:00;99365.92;;;8.88;100.00
62948;BME280;51940;52.126;-0.994;2023-03-18T00:49:25;99365.20;;;8.87;100.00
62948;BME280;51940;52.126;-0.994;2023-03-18T00:51:51;99365.20;;;8.88;100.00
62948;BME280;51940;52.126;-0.994;2023-03-18T00:54:17;99366.09;;;8.88;100.00
62948;BME280;51940;52.126;-0.994;2023-03-18T00:56:44;99367.86;;;8.88;100.00
62948;BME280;51940;52.126;-0.994;2023-03-18T00:59:10;99366.42;;;8.89;100.00
62948;BME280;51940;52.126;-0.994;2023-03-18T01:01:35;99368.91;;;8.89;100.00
62948;BME280;51940;52.126;-0.994;2023-03-18T01:04:01;99365.72;;;8.88;100.00
62948;BME280;51940;52.126;-0.994;2023-03-18T01:06:29;99363.60;;;8.88;100.00
62948;BME280;51940;52.126;-0.994;2023-03-18T01:08:55;99365.91;;;8.88;100.00
62948;BME280;51940;52.126;-0.994;2023-03-18T01:11:22;99364.75;;;8.85;100.00
62948;BME280;51940;52.126;-0.994;2023-03-18T01:13:48;99362.89;;;8.83;100.00
62948;BME280;51940;52.126;-0.994;2023-03-18T01:16:13;99362.61;;;8.81;100.00
62948;BME280;51940;52.126;-0.994;2023-03-18T01:18:39;99363.25;;;8.77;100.00
62948;BME280;51940;52.126;-0.994;2023-03-18T01:21:05;99357.14;;;8.74;100.00
62948;BME280;51940;52.126;-0.994;2023-03-18T01:23:31;99356.38;;;8.70;100.00
62948;BME280;51940;52.126;-0.994;2023-03-18T01:25:56;99359.53;;;8.67;100.00
62948;BME280;51940;52.126;-0.994;2023-03-18T01:28:22;99354.98;;;8.64;100.00
62948;BME280;51940;52.126;-0.994;2023-03-18T01:30:48;99356.45;;;8.62;100.00
62948;BME280;51940;52.126;-0.994;2023-03-18T01:33:13;99358.88;;;8.59;100.00
62948;BME280;51940;52.126;-0.994;2023-03-18T01:35:39;99353.13;;;8.56;100.00
62948;BME280;51940;52.126;-0.994;2023-03-18T01:38:05;99355.69;;;8.53;100.00
62948;BME280;51940;52.126;-0.994;2023-03-18T01:40:31;99354.74;;;8.50;100.00
62948;BME280;51940;52.126;-0.994;2023-03-18T01:43:11;99352.91;;;8.46;100.00
62948;BME280;51940;52.126;-0.994;2023-03-18T01:45:37;99347.88;;;8.42;100.00
62948;BME280;51940;52.126;-0.994;2023-03-18T01:48:03;99345.33;;;8.39;100.00
62948;BME280;51940;52.126;-0.994;2023-03-18T01:50:32;99336.17;;;8.35;100.00
62948;BME280;51940;52.126;-0.994;2023-03-18T01:53:00;99333.48;;;8.30;100.00
62948;BME280;51940;52.126;-0.994;2023-03-18T01:55:28;99331.64;;;8.26;100.00
62948;BME280;51940;52.126;-0.994;2023-03-18T01:57:54;99338.35;;;8.23;100.00
62948;BME280;51940;52.126;-0.994;2023-03-18T02:00:20;99343.27;;;8.18;100.00
62948;BME280;51940;52.126;-0.994;2023-03-18T02:02:47;99337.19;;;8.14;100.00
62948;BME280;51940;52.126;-0.994;2023-03-18T02:05:15;99331.61;;;8.11;100.00
62948;BME280;51940;52.126;-0.994;2023-03-18T02:07:42;99330.64;;;8.08;100.00
62948;BME280;51940;52.126;-0.994;2023-03-18T02:10:13;99325.76;;;8.05;100.00
62948;BME280;51940;52.126;-0.994;2023-03-18T02:12:41;99330.09;;;8.02;100.00
62948;BME280;51940;52.126;-0.994;2023-03-18T02:15:09;99325.85;;;8.02;100.00
62948;BME280;51940;52.126;-0.994;2023-03-18T02:17:36;99321.75;;;8.02;100.00
62948;BME280;51940;52.126;-0.994;2023-03-18T02:20:46;99322.66;;;8.02;100.00
62948;BME280;51940;52.126;-0.994;2023-03-18T02:22:57;99322.50;;;8.01;100.00
62948;BME280;51940;52.126;-0.994;2023-03-18T02:28:02;99321.20;;;7.97;100.00
62948;BME280;51940;52.126;-0.994;2023-03-18T02:30:41;99321.95;;;7.96;100.00
62948;BME280;51940;52.126;-0.994;2023-03-18T02:33:08;99322.86;;;7.96;100.00
62948;BME280;51940;52.126;-0.994;2023-03-18T02:35:34;99323.37;;;7.96;100.00
62948;BME280;51940;52.126;-0.994;2023-03-18T02:38:00;99324.52;;;7.99;100.00
62948;BME280;51940;52.126;-0.994;2023-03-18T02:42:51;99327.03;;;8.04;100.00
62948;BME280;51940;52.126;-0.994;2023-03-18T02:48:01;99327.13;;;8.12;100.00
62948;BME280;51940;52.126;-0.994;2023-03-18T02:50:29;99327.19;;;8.16;100.00
62948;BME280;51940;52.126;-0.994;2023-03-18T02:52:54;99325.66;;;8.19;100.00
62948;BME280;51940;52.126;-0.994;2023-03-18T02:55:20;99326.83;;;8.22;100.00
62948;BME280;51940;52.126;-0.994;2023-03-18T02:57:46;99328.48;;;8.25;100.00
62948;BME280;51940;52.126;-0.994;2023-03-18T03:00:11;99324.46;;;8.29;100.00
62948;BME280;51940;52.126;-0.994;2023-03-18T03:02:37;99324.52;;;8.32;100.00
62948;BME280;51940;52.126;-0.994;2023-03-18T03:05:03;99325.34;;;8.35;100.00
62948;BME280;51940;52.126;-0.994;2023-03-18T03:07:28;99324.39;;;8.38;100.00
62948;BME280;51940;52.126;-0.994;2023-03-18T03:09:54;99321.15;;;8.39;100.00
62948;BME280;51940;52.126;-0.994;2023-03-18T03:12:19;99322.68;;;8.41;100.00
62948;BME280;51940;52.126;-0.994;2023-03-18T03:14:44;99325.27;;;8.43;100.00
62948;BME280;51940;52.126;-0.994;2023-03-18T03:17:10;99322.00;;;8.45;100.00
62948;BME280;51940;52.126;-0.994;2023-03-18T03:19:36;99319.47;;;8.47;100.00
62948;BME280;51940;52.126;-0.994;2023-03-18T03:22:02;99322.25;;;8.49;100.00
62948;BME280;51940;52.126;-0.994;2023-03-18T03:24:29;99323.62;;;8.51;100.00
62948;BME280;51940;52.126;-0.994;2023-03-18T03:26:54;99322.14;;;8.52;100.00
62948;BME280;51940;52.126;-0.994;2023-03-18T03:29:21;99326.88;;;8.54;100.00
62948;BME280;51940;52.126;-0.994;2023-03-18T03:31:46;99330.58;;;8.56;100.00
62948;BME280;51940;52.126;-0.994;2023-03-18T03:34:12;99334.08;;;8.57;100.00
62948;BME280;51940;52.126;-0.994;2023-03-18T03:36:37;99333.83;;;8.59;100.00
62948;BME280;51940;52.126;-0.994;2023-03-18T03:39:02;99330.91;;;8.61;100.00
62948;BME280;51940;52.126;-0.994;2023-03-18T03:41:28;99330.34;;;8.62;100.00
62948;BME280;51940;52.126;-0.994;2023-03-18T03:43:53;99336.15;;;8.64;100.00
62948;BME280;51940;52.126;-0.994;2023-03-18T03:46:18;99335.77;;;8.65;100.00
62948;BME280;51940;52.126;-0.994;2023-03-18T03:48:44;99334.84;;;8.66;100.00
62948;BME280;51940;52.126;-0.994;2023-03-18T03:51:09;99339.41;;;8.67;100.00
62948;BME280;51940;52.126;-0.994;2023-03-18T03:53:35;99341.14;;;8.68;100.00
62948;BME280;51940;52.126;-0.994;2023-03-18T03:56:00;99339.14;;;8.70;100.00
62948;BME280;51940;52.126;-0.994;2023-03-18T03:58:25;99338.55;;;8.71;100.00
62948;BME280;51940;52.126;-0.994;2023-03-18T04:00:51;99342.29;;;8.72;100.00
62948;BME280;51940;52.126;-0.994;2023-03-18T04:03:16;99347.95;;;8.73;100.00
62948;BME280;51940;52.126;-0.994;2023-03-18T04:05:42;99346.47;;;8.74;100.00
62948;BME280;51940;52.126;-0.994;2023-03-18T04:08:08;99349.27;;;8.75;100.00
62948;BME280;51940;52.126;-0.994;2023-03-18T04:10:33;99349.41;;;8.77;100.00
62948;BME280;51940;52.126;-0.994;2023-03-18T04:13:01;99344.94;;;8.77;100.00
62948;BME280;51940;52.126;-0.994;2023-03-18T04:15:27;99348.80;;;8.79;100.00
62948;BME280;51940;52.126;-0.994;2023-03-18T04:17:52;99351.81;;;8.79;100.00
62948;BME280;51940;52.126;-0.994;2023-03-18T04:20:18;99356.23;;;8.80;100.00
62948;BME280;51940;52.126;-0.994;2023-03-18T04:22:45;99351.79;;;8.80;100.00
62948;BME280;51940;52.126;-0.994;2023-03-18T04:25:10;99358.01;;;8.80;100.00
62948;BME280;51940;52.126;-0.994;2023-03-18T04:27:37;99352.66;;;8.80;100.00
62948;BME280;51940;52.126;-0.994;2023-03-18T04:30:03;99355.87;;;8.80;100.00
62948;BME280;51940;52.126;-0.994;2023-03-18T04:32:29;99354.64;;;8.79;100.00
62948;BME280;51940;52.126;-0.994;2023-03-18T04:34:54;99354.13;;;8.79;100.00
62948;BME280;51940;52.126;-0.994;2023-03-18T04:37:19;99351.64;;;8.79;100.00
62948;BME280;51940;52.126;-0.994;2023-03-18T04:39:48;99352.52;;;8.79;100.00
62948;BME280;51940;52.126;-0.994;2023-03-18T04:42:13;99352.36;;;8.78;100.00
62948;BME280;51940;52.126;-0.994;2023-03-18T04:44:39;99356.63;;;8.79;100.00
62948;BME280;51940;52.126;-0.994;2023-03-18T04:47:05;99355.95;;;8.78;100.00
62948;BME280;51940;52.126;-0.994;2023-03-18T04:49:30;99358.63;;;8.77;100.00
62948;BME280;51940;52.126;-0.994;2023-03-18T04:51:56;99357.17;;;8.78;100.00
62948;BME280;51940;52.126;-0.994;2023-03-18T04:54:21;99356.64;;;8.78;100.00
62948;BME280;51940;52.126;-0.994;2023-03-18T04:56:47;99357.88;;;8.78;100.00
62948;BME280;51940;52.126;-0.994;2023-03-18T04:59:12;99357.88;;;8.78;100.00
62948;BME280;51940;52.126;-0.994;2023-03-18T05:01:37;99360.36;;;8.79;100.00
62948;BME280;51940;52.126;-0.994;2023-03-18T05:04:02;99359.98;;;8.79;100.00
62948;BME280;51940;52.126;-0.994;2023-03-18T05:06:28;99359.59;;;8.81;100.00
62948;BME280;51940;52.126;-0.994;2023-03-18T05:08:55;99361.89;;;8.81;100.00
62948;BME280;51940;52.126;-0.994;2023-03-18T05:11:22;99361.16;;;8.82;100.00
62948;BME280;51940;52.126;-0.994;2023-03-18T05:13:47;99356.34;;;8.82;100.00
62948;BME280;51940;52.126;-0.994;2023-03-18T05:16:13;99353.48;;;8.83;100.00
62948;BME280;51940;52.126;-0.994;2023-03-18T05:18:39;99354.01;;;8.83;100.00
62948;BME280;51940;52.126;-0.994;2023-03-18T05:21:05;99353.14;;;8.82;100.00
62948;BME280;51940;52.126;-0.994;2023-03-18T05:23:31;99354.58;;;8.82;100.00
62948;BME280;51940;52.126;-0.994;2023-03-18T05:25:57;99360.28;;;8.81;100.00
62948;BME280;51940;52.126;-0.994;2023-03-18T05:28:25;99363.13;;;8.82;100.00
62948;BME280;51940;52.126;-0.994;2023-03-18T05:30:51;99364.73;;;8.81;100.00
62948;BME280;51940;52.126;-0.994;2023-03-18T05:33:17;99366.35;;;8.80;100.00
62948;BME280;51940;52.126;-0.994;2023-03-18T05:35:43;99366.00;;;8.80;100.00
62948;BME280;51940;52.126;-0.994;2023-03-18T05:38:10;99368.48;;;8.80;100.00
62948;BME280;51940;52.126;-0.994;2023-03-18T05:40:35;99365.48;;;8.80;100.00
62948;BME280;51940;52.126;-0.994;2023-03-18T05:43:00;99367.77;;;8.80;100.00
62948;BME280;51940;52.126;-0.994;2023-03-18T05:45:26;99367.59;;;8.80;100.00
62948;BME280;51940;52.126;-0.994;2023-03-18T05:47:52;99367.23;;;8.80;100.00
62948;BME280;51940;52.126;-0.994;2023-03-18T05:50:26;99364.22;;;8.80;100.00
62948;BME280;51940;52.126;-0.994;2023-03-18T05:52:52;99363.67;;;8.80;100.00
62948;BME280;51940;52.126;-0.994;2023-03-18T05:55:18;99368.49;;;8.80;100.00
62948;BME280;51940;52.126;-0.994;2023-03-18T05:57:44;99366.16;;;8.81;100.00
62948;BME280;51940;52.126;-0.994;2023-03-18T06:00:09;99362.42;;;8.81;100.00
62948;BME280;51940;52.126;-0.994;2023-03-18T06:02:35;99364.36;;;8.82;100.00
62948;BME280;51940;52.126;-0.994;2023-03-18T06:05:00;99367.37;;;8.82;100.00
62948;BME280;51940;52.126;-0.994;2023-03-18T06:07:25;99367.52;;;8.83;100.00
62948;BME280;51940;52.126;-0.994;2023-03-18T06:09:51;99368.06;;;8.83;100.00
62948;BME280;51940;52.126;-0.994;2023-03-18T06:12:17;99371.42;;;8.83;100.00
62948;BME280;51940;52.126;-0.994;2023-03-18T06:14:44;99372.31;;;8.83;100.00
62948;BME280;51940;52.126;-0.994;2023-03-18T06:17:09;99379.42;;;8.83;100.00
62948;BME280;51940;52.126;-0.994;2023-03-18T06:19:36;99384.04;;;8.83;100.00
62948;BME280;51940;52.126;-0.994;2023-03-18T06:22:02;99389.17;;;8.84;100.00
62948;BME280;51940;52.126;-0.994;2023-03-18T06:24:27;99388.64;;;8.84;100.00
62948;BME280;51940;52.126;-0.994;2023-03-18T06:26:52;99392.35;;;8.84;100.00
62948;BME280;51940;52.126;-0.994;2023-03-18T06:29:18;99391.98;;;8.85;100.00
62948;BME280;51940;52.126;-0.994;2023-03-18T06:31:44;99389.67;;;8.85;100.00
62948;BME280;51940;52.126;-0.994;2023-03-18T06:34:09;99389.80;;;8.86;100.00
62948;BME280;51940;52.126;-0.994;2023-03-18T06:36:34;99388.49;;;8.88;100.00
62948;BME280;51940;52.126;-0.994;2023-03-18T06:38:59;99392.04;;;8.88;100.00
62948;BME280;51940;52.126;-0.994;2023-03-18T06:41:25;99393.75;;;8.91;100.00
62948;BME280;51940;52.126;-0.994;2023-03-18T06:43:50;99398.64;;;8.93;100.00
62948;BME280;51940;52.126;-0.994;2023-03-18T06:46:16;99405.25;;;8.97;100.00
62948;BME280;51940;52.126;-0.994;2023-03-18T06:48:42;99401.77;;;9.01;100.00
62948;BME280;51940;52.126;-0.994;2023-03-18T06:51:08;99402.61;;;9.07;100.00
62948;BME280;51940;52.126;-0.994;2023-03-18T06:53:35;99401.46;;;9.15;100.00
62948;BME280;51940;52.126;-0.994;2023-03-18T06:56:03;99403.28;;;9.19;100.00
62948;BME280;51940;52.126;-0.994;2023-03-18T06:58:30;99404.08;;;9.22;100.00
62948;BME280;51940;52.126;-0.994;2023-03-18T07:00:56;99406.87;;;9.24;100.00
62948;BME280;51940;52.126;-0.994;2023-03-18T07:03:21;99408.70;;;9.27;100.00
62948;BME280;51940;52.126;-0.994;2023-03-18T07:05:46;99414.47;;;9.35;100.00
62948;BME280;51940;52.126;-0.994;2023-03-18T07:08:12;99414.41;;;9.47;100.00
62948;BME280;51940;52.126;-0.994;2023-03-18T07:10:39;99421.50;;;9.57;100.00
62948;BME280;51940;52.126;-0.994;2023-03-18T07:13:06;99419.59;;;9.67;100.00
62948;BME280;51940;52.126;-0.994;2023-03-18T07:15:32;99422.75;;;9.72;100.00
62948;BME280;51940;52.126;-0.994;2023-03-18T07:17:58;99419.64;;;9.75;100.00
62948;BME280;51940;52.126;-0.994;2023-03-18T07:20:24;99427.23;;;9.77;100.00
62948;BME280;51940;52.126;-0.994;2023-03-18T07:22:49;99429.83;;;9.79;100.00
62948;BME280;51940;52.126;-0.994;2023-03-18T07:25:15;99428.58;;;9.83;100.00
62948;BME280;51940;52.126;-0.994;2023-03-18T07:27:42;99428.17;;;9.85;100.00
62948;BME280;51940;52.126;-0.994;2023-03-18T07:30:10;99430.37;;;9.84;100.00
62948;BME280;51940;52.126;-0.994;2023-03-18T07:32:35;99434.89;;;9.86;100.00
62948;BME280;51940;52.126;-0.994;2023-03-18T07:35:02;99438.31;;;9.90;100.00
62948;BME280;51940;52.126;-0.994;2023-03-18T07:37:28;99438.67;;;9.95;100.00
62948;BME280;51940;52.126;-0.994;2023-03-18T07:39:54;99439.42;;;10.03;100.00
62948;BME280;51940;52.126;-0.994;2023-03-18T07:42:20;99440.61;;;10.14;100.00
62948;BME280;51940;52.126;-0.994;2023-03-18T07:44:45;99441.73;;;10.23;100.00
62948;BME280;51940;52.126;-0.994;2023-03-18T07:47:11;99440.08;;;10.29;100.00
62948;BME280;51940;52.126;-0.994;2023-03-18T07:49:38;99436.49;;;10.34;100.00
62948;BME280;51940;52.126;-0.994;2023-03-18T07:52:05;99437.82;;;10.41;100.00
62948;BME280;51940;52.126;-0.994;2023-03-18T07:54:31;99438.89;;;10.51;100.00
62948;BME280;51940;52.126;-0.994;2023-03-18T07:56:56;99438.20;;;10.64;100.00
62948;BME280;51940;52.126;-0.994;2023-03-18T07:59:22;99433.45;;;10.84;100.00
62948;BME280;51940;52.126;-0.994;2023-03-18T08:01:47;99437.08;;;11.09;100.00
62948;BME280;51940;52.126;-0.994;2023-03-18T08:04:13;99434.27;;;11.33;100.00
62948;BME280;51940;52.126;-0.994;2023-03-18T08:06:38;99431.94;;;11.54;100.00
62948;BME280;51940;52.126;-0.994;2023-03-18T08:09:04;99430.48;;;11.75;100.00
62948;BME280;51940;52.126;-0.994;2023-03-18T08:11:30;99434.31;;;11.90;100.00
62948;BME280;51940;52.126;-0.994;2023-03-18T08:13:57;99436.48;;;12.02;100.00
62948;BME280;51940;52.126;-0.994;2023-03-18T08:16:23;99437.35;;;12.10;100.00
62948;BME280;51940;52.126;-0.994;2023-03-18T08:18:48;99440.63;;;12.16;100.00
62948;BME280;51940;52.126;-0.994;2023-03-18T08:21:13;99437.88;;;12.22;100.00
62948;BME280;51940;52.126;-0.994;2023-03-18T08:23:39;99441.34;;;12.24;100.00
62948;BME280;51940;52.126;-0.994;2023-03-18T08:26:05;99442.92;;;12.21;100.00
62948;BME280;51940;52.126;-0.994;2023-03-18T08:28:31;99446.77;;;12.11;100.00
62948;BME280;51940;52.126;-0.994;2023-03-18T08:30:57;99448.67;;;12.00;100.00
62948;BME280;51940;52.126;-0.994;2023-03-18T08:33:23;99451.77;;;11.87;100.00
62948;BME280;51940;52.126;-0.994;2023-03-18T08:35:49;99457.77;;;11.76;100.00
62948;BME280;51940;52.126;-0.994;2023-03-18T08:38:17;99457.53;;;11.69;100.00
62948;BME280;51940;52.126;-0.994;2023-03-18T08:40:43;99458.86;;;11.64;100.00
62948;BME280;51940;52.126;-0.994;2023-03-18T08:43:09;99460.91;;;11.61;100.00
62948;BME280;51940;52.126;-0.994;2023-03-18T08:45:34;99459.14;;;11.57;100.00
62948;BME280;51940;52.126;-0.994;2023-03-18T08:48:00;99461.50;;;11.51;100.00
62948;BME280;51940;52.126;-0.994;2023-03-18T08:50:26;99465.92;;;11.49;100.00
62948;BME280;51940;52.126;-0.994;2023-03-18T08:52:57;99461.37;;;11.47;100.00
62948;BME280;51940;52.126;-0.994;2023-03-18T08:55:26;99464.94;;;11.43;100.00
62948;BME280;51940;52.126;-0.994;2023-03-18T08:57:52;99464.42;;;11.38;100.00
62948;BME280;51940;52.126;-0.994;2023-03-18T09:00:18;99463.79;;;11.36;100.00
62948;BME280;51940;52.126;-0.994;2023-03-18T09:02:45;99465.21;;;11.36;100.00
62948;BME280;51940;52.126;-0.994;2023-03-18T09:05:11;99466.39;;;11.38;100.00
62948;BME280;51940;52.126;-0.994;2023-03-18T09:07:37;99467.86;;;11.41;100.00
62948;BME280;51940;52.126;-0.994;2023-03-18T09:10:02;99464.02;;;11.48;100.00
62948;BME280;51940;52.126;-0.994;2023-03-18T09:12:28;99462.13;;;11.54;100.00
62948;BME280;51940;52.126;-0.994;2023-03-18T09:14:55;99463.64;;;11.60;100.00
62948;BME280;51940;52.126;-0.994;2023-03-18T09:17:21;99460.65;;;11.64;100.00
62948;BME280;51940;52.126;-0.994;2023-03-18T09:19:47;99462.81;;;11.67;100.00
62948;BME280;51940;52.126;-0.994;2023-03-18T09:22:12;99459.61;;;11.71;100.00
62948;BME280;51940;52.126;-0.994;2023-03-18T09:24:37;99459.71;;;11.76;100.00
62948;BME280;51940;52.126;-0.994;2023-03-18T09:27:03;99457.73;;;11.82;100.00
62948;BME280;51940;52.126;-0.994;2023-03-18T09:29:29;99457.89;;;11.90;100.00
62948;BME280;51940;52.126;-0.994;2023-03-18T09:31:54;99463.12;;;11.97;100.00
62948;BME280;51940;52.126;-0.994;2023-03-18T09:34:21;99465.97;;;12.05;100.00
62948;BME280;51940;52.126;-0.994;2023-03-18T09:36:46;99468.07;;;12.14;100.00
62948;BME280;51940;52.126;-0.994;2023-03-18T09:39:18;99469.34;;;12.22;100.00
62948;BME280;51940;52.126;-0.994;2023-03-18T09:42:01;99475.26;;;12.29;100.00
62948;BME280;51940;52.126;-0.994;2023-03-18T09:44:33;99471.42;;;12.38;100.00
62948;BME280;51940;52.126;-0.994;2023-03-18T09:49:27;99473.70;;;12.51;100.00
62948;BME280;51940;52.126;-0.994;2023-03-18T09:54:36;99469.82;;;12.65;100.00
62948;BME280;51940;52.126;-0.994;2023-03-18T09:57:08;99466.77;;;12.73;100.00
62948;BME280;51940;52.126;-0.994;2023-03-18T09:59:43;99470.05;;;12.83;100.00
62948;BME280;51940;52.126;-0.994;2023-03-18T10:02:32;99473.52;;;12.89;100.00
62948;BME280;51940;52.126;-0.994;2023-03-18T10:04:57;99478.70;;;12.96;100.00
62948;BME280;51940;52.126;-0.994;2023-03-18T10:07:28;99477.87;;;13.03;100.00
62948;BME280;51940;52.126;-0.994;2023-03-18T10:10:01;99476.80;;;13.09;100.00
62948;BME280;51940;52.126;-0.994;2023-03-18T10:12:33;99475.80;;;13.15;100.00
62948;BME280;51940;52.126;-0.994;2023-03-18T10:15:17;99477.02;;;13.24;100.00
62948;BME280;51940;52.126;-0.994;2023-03-18T10:17:47;99478.73;;;13.36;100.00
62948;BME280;51940;52.126;-0.994;2023-03-18T10:20:17;99476.64;;;13.45;100.00
62948;BME280;51940;52.126;-0.994;2023-03-18T10:28:14;99476.91;;;13.69;100.00
62948;BME280;51940;52.126;-0.994;2023-03-18T10:35:57;99479.24;;;13.96;100.00
62948;BME280;51940;52.126;-0.994;2023-03-18T10:38:24;99481.59;;;14.09;100.00
62948;BME280;51940;52.126;-0.994;2023-03-18T10:40:52;99480.50;;;14.20;100.00
62948;BME280;51940;52.126;-0.994;2023-03-18T10:43:18;99481.73;;;14.30;100.00
62948;BME280;51940;52.126;-0.994;2023-03-18T10:45:45;99478.88;;;14.36;100.00
62948;BME280;51940;52.126;-0.994;2023-03-18T10:48:19;99477.05;;;14.43;100.00
62948;BME280;51940;52.126;-0.994;2023-03-18T10:51:02;99473.70;;;14.52;100.00
62948;BME280;51940;52.126;-0.994;2023-03-18T10:54:18;99475.96;;;14.60;100.00
62948;BME280;51940;52.126;-0.994;2023-03-18T10:56:17;99474.52;;;14.70;100.00
62948;BME280;51940;52.126;-0.994;2023-03-18T10:58:43;99473.16;;;14.76;100.00
62948;BME280;51940;52.126;-0.994;2023-03-18T11:01:09;99473.23;;;14.80;100.00
62948;BME280;51940;52.126;-0.994;2023-03-18T11:06:14;99465.77;;;14.92;100.00
62948;BME280;51940;52.126;-0.994;2023-03-18T11:08:40;99466.20;;;14.88;100.00
62948;BME280;51940;52.126;-0.994;2023-03-18T11:13:52;99467.29;;;14.97;100.00
62948;BME280;51940;52.126;-0.994;2023-03-18T11:16:23;99464.55;;;14.94;100.00
62948;BME280;51940;52.126;-0.994;2023-03-18T11:18:50;99464.40;;;14.97;100.00
62948;BME280;51940;52.126;-0.994;2023-03-18T11:21:16;99461.16;;;15.03;100.00
62948;BME280;51940;52.126;-0.994;2023-03-18T11:23:48;99463.59;;;15.05;100.00
62948;BME280;51940;52.126;-0.994;2023-03-18T11:26:27;99463.01;;;15.02;100.00
62948;BME280;51940;52.126;-0.994;2023-03-18T11:28:53;99463.55;;;14.99;100.00
62948;BME280;51940;52.126;-0.994;2023-03-18T11:31:18;99464.84;;;14.95;100.00
62948;BME280;51940;52.126;-0.994;2023-03-18T11:33:44;99466.46;;;14.89;100.00
62948;BME280;51940;52.126;-0.994;2023-03-18T11:36:15;99468.33;;;14.72;100.00
62948;BME280;51940;52.126;-0.994;2023-03-18T11:38:41;99469.25;;;14.58;100.00
62948;BME280;51940;52.126;-0.994;2023-03-18T11:44:14;99470.17;;;14.55;100.00
62948;BME280;51940;52.126;-0.994;2023-03-18T11:46:45;99471.94;;;14.52;100.00
62948;BME280;51940;52.126;-0.994;2023-03-18T11:49:12;99473.95;;;14.45;100.00
62948;BME280;51940;52.126;-0.994;2023-03-18T12:01:48;99474.63;;;13.98;100.00
62948;BME280;51940;52.126;-0.994;2023-03-18T12:09:36;99482.23;;;13.63;100.00
62948;BME280;51940;52.126;-0.994;2023-03-18T12:12:15;99481.98;;;13.57;100.00
62948;BME280;51940;52.126;-0.994;2023-03-18T12:14:56;99479.97;;;13.50;100.00
62948;BME280;51940;52.126;-0.994;2023-03-18T12:17:35;99478.23;;;13.46;100.00
62948;BME280;51940;52.126;-0.994;2023-03-18T12:30:45;99481.90;;;13.41;100.00
62948;BME280;51940;52.126;-0.994;2023-03-18T12:45:39;99482.47;;;13.82;100.00
62948;BME280;51940;52.126;-0.994;2023-03-18T12:48:23;99485.17;;;13.89;100.00
62948;BME280;51940;52.126;-0.994;2023-03-18T12:50:53;99485.03;;;13.98;100.00
62948;BME280;51940;52.126;-0.994;2023-03-18T12:53:23;99481.98;;;14.09;100.00
62948;BME280;51940;52.126;-0.994;2023-03-18T12:55:56;99483.84;;;14.18;100.00
62948;BME280;51940;52.126;-0.994;2023-03-18T12:58:36;99484.31;;;14.25;100.00
62948;BME280;51940;52.126;-0.994;2023-03-18T13:01:07;99482.02;;;14.31;100.00
62948;BME280;51940;52.126;-0.994;2023-03-18T13:03:50;99480.55;;;14.35;100.00
62948;BME280;51940;52.126;-0.994;2023-03-18T13:06:26;99477.00;;;14.37;100.00
62948;BME280;51940;52.126;-0.994;2023-03-18T13:09:41;99480.56;;;14.41;100.00
62948;BME280;51940;52.126;-0.994;2023-03-18T13:11:42;99477.20;;;14.48;100.00
62948;BME280;51940;52.126;-0.994;2023-03-18T13:16:46;99476.99;;;14.55;100.00
62948;BME280;51940;52.126;-0.994;2023-03-18T13:19:11;99476.12;;;14.57;100.00
62948;BME280;51940;52.126;-0.994;2023-03-18T13:21:42;99478.65;;;14.60;100.00
62948;BME280;51940;52.126;-0.994;2023-03-18T13:26:49;99478.75;;;14.62;100.00
62948;BME280;51940;52.126;-0.994;2023-03-18T13:42:43;99474.70;;;14.60;100.00
62948;BME280;51940;52.126;-0.994;2023-03-18T13:45:13;99477.25;;;14.60;100.00
62948;BME280;51940;52.126;-0.994;2023-03-18T13:47:42;99472.33;;;14.61;100.00
62948;BME280;51940;52.126;-0.994;2023-03-18T13:52:42;99469.69;;;14.60;100.00
62948;BME280;51940;52.126;-0.994;2023-03-18T13:57:46;99468.89;;;14.65;100.00
62948;BME280;51940;52.126;-0.994;2023-03-18T14:00:21;99466.17;;;14.65;100.00
62948;BME280;51940;52.126;-0.994;2023-03-18T14:02:59;99465.22;;;14.66;100.00
62948;BME280;51940;52.126;-0.994;2023-03-18T14:05:33;99468.98;;;14.70;100.00
62948;BME280;51940;52.126;-0.994;2023-03-18T14:08:03;99474.59;;;14.69;100.00
62948;BME280;51940;52.126;-0.994;2023-03-18T14:10:29;99472.76;;;14.69;100.00
62948;BME280;51940;52.126;-0.994;2023-03-18T14:12:55;99470.20;;;14.67;100.00
62948;BME280;51940;52.126;-0.994;2023-03-18T14:15:41;99468.83;;;14.69;100.00
62948;BME280;51940;52.126;-0.994;2023-03-18T14:18:18;99466.08;;;14.71;100.00
62948;BME280;51940;52.126;-0.994;2023-03-18T14:32:29;99450.80;;;15.02;100.00